Time;durP1;ratioP1;P1;durP2;ratioP2;P2;SDS_P1;SDS_P2;PMS_P1;PMS_P2;Temp;Humidity;BMP_temperature;BMP_pressure;BME280_temperature;BME280_humidity;BME280_pressure;Samples;Min_cycle;Max_cycle;Signal;HPM_P1;HPM_P2
2022/10/01 00:00:55;;;;;;;17.30;10.45;;;435.50;2355.20;;;;;;5036020;28;20075;-83
2022/10/01 00:03:22;;;;;;;16.55;11.60;;;435.60;2355.20;;;;;;5035927;28;20074;-85
2022/10/01 00:06:03;;;;;;;26.60;15.75;;;435.60;2355.20;;;;;;5036063;28;20075;-84
2022/10/01 00:08:30;;;;;;;22.75;15.15;;;435.60;2355.20;;;;;;5035261;28;20060;-82
2022/10/01 00:10:58;;;;;;;22.67;14.35;;;435.60;2355.20;;;;;;5036180;28;20037;-83
2022/10/01 00:13:24;;;;;;;20.65;13.45;;;435.70;2355.20;;;;;;5036067;28;20025;-84
2022/10/01 00:15:50;;;;;;;22.08;12.77;;;435.60;2355.20;;;;;;5036099;28;20021;-85
2022/10/01 00:18:15;;;;;;;19.30;12.07;;;435.60;2355.20;;;;;;5036237;28;20132;-83
2022/10/01 00:20:42;;;;;;;19.45;11.48;;;435.60;2355.20;;;;;;5036216;28;20414;-83
2022/10/01 00:23:12;;;;;;;15.20;9.32;;;435.70;2355.20;;;;;;5035995;28;20108;-83
2022/10/01 00:25:39;;;;;;;13.63;8.90;;;435.70;2355.20;;;;;;5034795;28;20359;-83
2022/10/01 00:28:05;;;;;;;15.50;10.02;;;435.70;2355.20;;;;;;5035898;28;20029;-84
2022/10/01 00:30:31;;;;;;;18.50;11.20;;;435.60;2355.20;;;;;;5035347;28;20036;-82
2022/10/01 00:32:57;;;;;;;18.73;11.18;;;435.40;2355.20;;;;;;5053670;28;20021;-84
2022/10/01 00:35:23;;;;;;;13.00;10.30;;;435.40;2355.20;;;;;;5035938;28;20025;-82
2022/10/01 00:37:51;;;;;;;13.77;9.80;;;435.30;2355.20;;;;;;5034955;28;20029;-83
2022/10/01 00:40:23;;;;;;;15.35;9.73;;;435.70;2355.20;;;;;;5035908;28;20394;-85
2022/10/01 00:42:49;;;;;;;;;;;435.20;2355.20;;;;;;5035853;28;20049;-82
2022/10/01 00:45:15;;;;;;;13.45;9.57;;;410.30;2355.20;;;;;;5035844;28;20354;-84
2022/10/01 00:47:54;;;;;;;17.10;10.15;;;410.50;2355.20;;;;;;5035536;28;20498;-83
2022/10/01 00:50:27;;;;;;;15.90;9.82;;;410.50;2355.20;;;;;;5035453;28;20693;-83
2022/10/01 00:52:59;;;;;;;19.80;11.73;;;410.50;2355.20;;;;;;5052719;28;20017;-84
2022/10/01 00:55:31;;;;;;;58.25;33.08;;;410.50;2355.20;;;;;;5035551;28;20025;-84
2022/10/01 00:57:57;;;;;;;55.95;36.65;;;435.20;2355.20;;;;;;5035835;28;20090;-83
2022/10/01 01:00:24;;;;;;;28.35;18.75;;;410.50;2355.20;;;;;;5035415;28;20021;-82
2022/10/01 01:02:50;;;;;;;30.50;20.25;;;410.50;2355.20;;;;;;5035891;28;20412;-83
2022/10/01 01:05:16;;;;;;;30.88;18.45;;;410.50;2355.20;;;;;;5035562;28;20029;-83
2022/10/01 01:07:46;;;;;;;17.38;10.85;;;435.20;2355.20;;;;;;5035392;28;20032;-84
2022/10/01 01:10:16;;;;;;;17.48;10.45;;;410.50;2355.20;;;;;;5035578;28;20028;-87
2022/10/01 01:13:10;;;;;;;11.32;8.52;;;410.30;2355.20;;;;;;5036136;28;20028;-81
2022/10/01 01:15:46;;;;;;;13.10;9.98;;;410.20;2355.20;;;;;;5039516;28;20040;-83
2022/10/01 01:18:40;;;;;;;18.90;12.18;;;410.30;2355.20;;;;;;5039631;28;20388;-82
2022/10/01 01:21:11;;;;;;;17.95;11.23;;;410.40;2355.20;;;;;;5038968;28;20025;-82
2022/10/01 01:24:07;;;;;;;17.38;9.73;;;410.50;2355.20;;;;;;5039246;28;20048;-82
2022/10/01 01:27:05;;;;;;;12.63;8.48;;;410.30;2355.20;;;;;;5072263;28;20106;-82
2022/10/01 01:30:03;;;;;;;15.82;8.80;;;410.40;2355.20;;;;;;5039119;28;20032;-84
2022/10/01 01:32:48;;;;;;;9.90;7.43;;;410.30;2355.20;;;;;;5072436;28;20025;-81
2022/10/01 01:35:20;;;;;;;13.15;8.85;;;410.40;2355.20;;;;;;5038910;28;20028;-85
2022/10/01 01:37:53;;;;;;;12.32;9.05;;;410.30;2355.20;;;;;;5056792;28;20024;-84
2022/10/01 01:40:20;;;;;;;17.88;8.43;;;410.30;2355.20;;;;;;5056920;28;20025;-85
2022/10/01 01:42:47;;;;;;;11.63;7.30;;;410.20;2355.20;;;;;;5038630;28;20033;-85
2022/10/01 01:45:19;;;;;;;14.82;8.32;;;410.20;2355.20;;;;;;5039017;28;20025;-81
2022/10/01 01:47:46;;;;;;;16.67;8.32;;;410.20;2355.20;;;;;;5056440;28;20098;-84
2022/10/01 01:50:14;;;;;;;13.60;8.40;;;410.20;2355.20;;;;;;5038760;28;20039;-82
2022/10/01 01:52:40;;;;;;;13.40;8.65;;;410.00;2355.20;;;;;;5038735;28;20040;-84
2022/10/01 01:55:09;;;;;;;12.90;9.35;;;410.20;2355.20;;;;;;5056486;28;20028;-82
2022/10/01 01:57:43;;;;;;;17.10;9.85;;;409.80;2355.20;;;;;;5038883;28;20116;-85
2022/10/01 02:00:11;;;;;;;12.88;7.88;;;409.90;2355.20;;;;;;5038646;28;20025;-84
2022/10/01 02:02:39;;;;;;;13.00;8.00;;;410.00;2355.20;;;;;;5038380;28;20064;-85
2022/10/01 02:05:09;;;;;;;13.65;8.68;;;409.90;2355.20;;;;;;5038698;28;20079;-83
2022/10/01 02:07:51;;;;;;;10.00;7.63;;;410.00;2355.20;;;;;;5037548;28;20029;-83
2022/10/01 02:10:20;;;;;;;10.60;6.93;;;410.00;2355.20;;;;;;5055644;28;20386;-83
2022/10/01 02:13:00;;;;;;;17.00;8.90;;;410.00;2355.20;;;;;;5053982;28;20119;-81
2022/10/01 02:15:49;;;;;;;14.00;7.00;;;410.20;2355.20;;;;;;5055036;28;20190;-81
2022/10/01 02:18:28;;;;;;;9.38;6.90;;;410.10;2355.20;;;;;;5038197;28;20383;-81
2022/10/01 02:21:06;;;;;;;12.38;7.90;;;410.20;2355.20;;;;;;5054920;28;20028;-81
2022/10/01 02:23:42;;;;;;;12.68;7.43;;;410.20;2355.20;;;;;;5055664;28;20421;-84
2022/10/01 02:26:13;;;;;;;18.55;8.43;;;410.20;2355.20;;;;;;5037553;28;20029;-83
2022/10/01 02:28:41;;;;;;;18.73;9.32;;;410.30;2355.20;;;;;;5061321;28;20059;-84
2022/10/01 02:31:10;;;;;;;10.95;7.22;;;410.30;2355.20;;;;;;5060078;28;20124;-84
2022/10/01 02:33:37;;;;;;;14.60;9.05;;;410.30;2355.20;;;;;;5050506;28;20033;-84
2022/10/01 02:36:06;;;;;;;12.45;8.57;;;410.20;2355.20;;;;;;5037871;28;20051;-85
2022/10/01 02:38:36;;;;;;;13.77;8.57;;;410.10;2355.20;;;;;;5037806;28;20029;-83
2022/10/01 02:41:07;;;;;;;14.20;7.65;;;410.20;2355.20;;;;;;5071022;28;20025;-84
2022/10/01 02:43:52;;;;;;;14.43;8.35;;;410.00;2355.20;;;;;;5053979;28;20079;-83
2022/10/01 02:46:27;;;;;;;13.75;8.18;;;409.80;2355.20;;;;;;5037502;28;20032;-81
2022/10/01 02:48:53;;;;;;;13.60;7.60;;;409.90;2355.20;;;;;;5071015;28;20120;-82
2022/10/01 02:51:28;;;;;;;15.00;8.73;;;410.10;2355.20;;;;;;5037570;28;20029;-82
2022/10/01 02:54:02;;;;;;;15.43;8.10;;;409.70;2355.20;;;;;;5054414;28;20044;-81
2022/10/01 02:59:13;;;;;;;12.63;8.73;;;410.00;2355.20;;;;;;5055182;28;20565;-83
2022/10/01 03:01:39;;;;;;;18.63;9.73;;;410.00;2355.20;;;;;;5037608;28;20021;-83
2022/10/01 03:04:05;;;;;;;15.82;9.02;;;410.00;2355.20;;;;;;5037307;28;20028;-82
2022/10/01 03:06:30;;;;;;;16.27;9.27;;;410.10;2355.20;;;;;;5054646;28;20025;-84
2022/10/01 03:08:58;;;;;;;14.18;9.60;;;410.00;2355.20;;;;;;5037349;28;20537;-83
2022/10/01 03:11:23;;;;;;;13.43;9.10;;;409.80;2355.20;;;;;;5055011;28;20116;-85
2022/10/01 03:13:49;;;;;;;15.18;9.43;;;410.00;2355.20;;;;;;5070218;28;20116;-83
2022/10/01 03:16:15;;;;;;;16.38;9.20;;;410.00;2355.20;;;;;;5037152;28;20025;-81
2022/10/01 03:18:40;;;;;;;12.75;9.43;;;410.00;2355.20;;;;;;5070131;28;20029;-80
2022/10/01 03:21:06;;;;;;;14.57;9.27;;;410.00;2355.20;;;;;;5036951;28;20474;-84
2022/10/01 03:23:32;;;;;;;12.02;8.82;;;409.80;2355.20;;;;;;5036896;28;20063;-81
2022/10/01 03:25:57;;;;;;;14.75;9.38;;;409.90;2355.20;;;;;;5036803;28;20033;-84
2022/10/01 03:28:23;;;;;;;14.38;10.20;;;410.00;2227.20;;;;;;5036866;28;20036;-82
2022/10/01 03:30:49;;;;;;;12.27;8.93;;;409.90;2355.20;;;;;;5036930;28;20025;-82
2022/10/01 03:33:15;;;;;;;15.15;9.80;;;409.70;2355.20;;;;;;5061247;28;20031;-82
2022/10/01 03:35:40;;;;;;;13.68;9.55;;;409.90;2201.60;;;;;;5055860;28;20024;-81
2022/10/01 03:38:07;;;;;;;17.40;10.55;;;409.90;2355.20;;;;;;5055644;28;20032;-81
2022/10/01 03:40:36;;;;;;;18.05;10.98;;;409.80;2355.20;;;;;;5056328;28;20028;-83
2022/10/01 03:43:02;;;;;;;15.25;10.35;;;409.90;2355.20;;;;;;5056564;28;20048;-83
2022/10/01 03:45:28;;;;;;;17.13;9.23;;;410.00;2355.20;;;;;;5074402;28;20043;-82
2022/10/01 03:47:53;;;;;;;55.28;26.88;;;410.00;2355.20;;;;;;5056019;28;20039;-82
2022/10/01 03:50:20;;;;;;;24.20;14.10;;;409.90;2355.20;;;;;;5056448;28;20028;-82
2022/10/01 03:52:46;;;;;;;18.63;10.43;;;409.90;2355.20;;;;;;5056300;28;20028;-84
2022/10/01 03:55:12;;;;;;;14.23;9.70;;;410.00;2355.20;;;;;;5056028;28;20033;-82
2022/10/01 03:57:38;;;;;;;60.90;26.80;;;409.90;2355.20;;;;;;5056347;28;20033;-83
2022/10/01 04:00:04;;;;;;;70.18;27.80;;;410.00;2355.20;;;;;;5056297;28;20025;-82
2022/10/01 04:02:30;;;;;;;54.97;24.48;;;410.30;2355.20;;;;;;5055930;28;20078;-84
2022/10/01 04:04:55;;;;;;;26.88;12.98;;;410.20;2355.20;;;;;;5056377;28;20441;-82
2022/10/01 04:07:21;;;;;;;18.88;10.75;;;410.20;2355.20;;;;;;5056132;28;20428;-84
2022/10/01 04:09:49;;;;;;;15.32;10.50;;;410.30;2355.20;;;;;;5073584;28;20069;-83
2022/10/01 04:12:15;;;;;;;16.42;10.13;;;410.20;2355.20;;;;;;5056122;28;20381;-82
2022/10/01 04:14:41;;;;;;;22.13;10.35;;;410.30;2355.20;;;;;;5055722;28;20025;-84
2022/10/01 04:17:07;;;;;;;20.38;13.00;;;410.20;2355.20;;;;;;5055956;28;20428;-83
2022/10/01 04:19:32;;;;;;;22.73;14.20;;;410.20;2355.20;;;;;;5055996;28;20024;-85
2022/10/01 04:21:58;;;;;;;18.17;10.52;;;410.10;2355.20;;;;;;5055737;28;20029;-81
2022/10/01 04:24:24;;;;;;;13.50;9.80;;;410.20;2355.20;;;;;;5056009;28;20062;-83
2022/10/01 04:26:50;;;;;;;25.58;9.90;;;410.20;2355.20;;;;;;5055811;28;20474;-83
2022/10/01 04:29:16;;;;;;;10.43;7.47;;;410.20;2329.60;;;;;;5073371;28;20033;-84
2022/10/01 04:31:42;;;;;;;12.63;8.70;;;410.20;2355.20;;;;;;5055587;28;20074;-81
2022/10/01 04:34:08;;;;;;;12.68;8.75;;;410.20;2355.20;;;;;;5056131;28;20052;-82
2022/10/01 04:36:33;;;;;;;17.20;8.45;;;410.20;2329.60;;;;;;5051033;28;20027;-82
2022/10/01 04:38:59;;;;;;;14.00;9.52;;;410.20;2355.20;;;;;;5036100;28;20086;-82
2022/10/01 04:41:25;;;;;;;11.32;8.27;;;410.20;2355.20;;;;;;5034986;28;20025;-82
2022/10/01 04:43:51;;;;;;;13.43;8.70;;;410.20;2355.20;;;;;;5035189;28;20056;-82
2022/10/01 04:46:17;;;;;;;11.68;9.63;;;410.20;2355.20;;;;;;5035952;28;20029;-82
2022/10/01 04:48:43;;;;;;;17.70;10.32;;;410.00;2355.20;;;;;;5073033;28;20033;-86
2022/10/01 04:51:08;;;;;;;10.75;8.02;;;410.00;2355.20;;;;;;5039703;28;20029;-83
2022/10/01 04:53:34;;;;;;;14.18;9.52;;;410.00;2073.60;;;;;;5039796;28;20032;-83
2022/10/01 04:56:00;;;;;;;14.75;9.05;;;410.20;2355.20;;;;;;5039615;28;20120;-82
2022/10/01 04:58:26;;;;;;;18.38;10.23;;;410.20;2355.20;;;;;;5039466;28;20033;-84
2022/10/01 05:00:52;;;;;;;16.27;10.50;;;410.10;2355.20;;;;;;5039758;28;20079;-82
2022/10/01 05:03:18;;;;;;;14.50;9.90;;;410.10;2355.20;;;;;;5039941;28;20033;-83
2022/10/01 05:05:43;;;;;;;14.10;9.27;;;410.00;2355.20;;;;;;5037750;28;20383;-82
2022/10/01 05:08:09;;;;;;;17.92;10.13;;;410.00;2355.20;;;;;;5038033;28;20462;-81
2022/10/01 05:10:35;;;;;;;11.95;10.48;;;410.20;2355.20;;;;;;5038737;28;20033;-81
2022/10/01 05:13:01;;;;;;;15.32;9.85;;;410.20;2355.20;;;;;;5039502;28;20029;-84
2022/10/01 05:15:28;;;;;;;13.98;9.95;;;410.10;2355.20;;;;;;5039452;28;20494;-83
2022/10/01 05:17:54;;;;;;;19.08;13.77;;;410.30;2278.40;;;;;;5056906;28;20028;-83
2022/10/01 05:20:24;;;;;;;23.40;15.07;;;410.20;2355.20;;;;;;5039475;28;20025;-82
2022/10/01 05:22:51;;;;;;;18.15;13.52;;;410.30;1996.80;;;;;;5057443;28;20032;-84
2022/10/01 05:25:17;;;;;;;22.35;14.25;;;410.30;2355.20;;;;;;5039211;28;20474;-83
2022/10/01 05:27:44;;;;;;;21.50;13.00;;;410.50;2355.20;;;;;;5057060;28;20036;-83
2022/10/01 05:30:12;;;;;;;19.20;13.75;;;410.50;2355.20;;;;;;5039316;28;20387;-83
2022/10/01 05:32:38;;;;;;;17.35;13.48;;;410.50;2355.20;;;;;;5041807;28;20111;-82
2022/10/01 05:35:06;;;;;;;21.27;13.82;;;410.50;2355.20;;;;;;5051440;28;20158;-84
2022/10/01 05:37:32;;;;;;;20.25;15.25;;;410.50;2355.20;;;;;;5038287;28;20029;-82
2022/10/01 05:39:58;;;;;;;20.95;15.75;;;410.50;2355.20;;;;;;5037819;28;20053;-83
2022/10/01 05:42:23;;;;;;;21.42;15.73;;;410.50;2355.20;;;;;;5039030;28;20068;-83
2022/10/01 05:44:49;;;;;;;20.17;16.63;;;410.50;2355.20;;;;;;5038518;28;20141;-84
2022/10/01 05:47:16;;;;;;;23.75;17.33;;;410.40;2355.20;;;;;;5038735;28;20021;-84
2022/10/01 05:49:43;;;;;;;23.42;17.95;;;410.50;2355.20;;;;;;5038878;28;20040;-82
2022/10/01 05:52:13;;;;;;;23.25;18.40;;;410.50;2355.20;;;;;;5038803;28;20083;-82
2022/10/01 05:54:39;;;;;;;21.65;16.70;;;410.30;2355.20;;;;;;5038900;28;20083;-82
2022/10/01 05:57:06;;;;;;;21.52;15.13;;;410.50;2355.20;;;;;;5038575;28;20025;-82
2022/10/01 05:59:33;;;;;;;20.00;15.50;;;435.40;2355.20;;;;;;5037921;28;20029;-82
2022/10/01 06:01:59;;;;;;;21.13;16.98;;;435.20;2355.20;;;;;;5038621;28;20032;-82
2022/10/01 06:04:25;;;;;;;29.08;17.98;;;435.30;2355.20;;;;;;5056773;28;20054;-83
2022/10/01 06:06:52;;;;;;;30.08;20.00;;;410.50;2355.20;;;;;;5038505;28;20049;-82
2022/10/01 06:09:18;;;;;;;32.25;28.98;;;410.50;2355.20;;;;;;5038400;28;20021;-81
2022/10/01 06:11:47;;;;;;;30.65;26.85;;;435.20;2355.20;;;;;;5038377;28;20032;-81
2022/10/01 06:14:13;;;;;;;30.95;23.50;;;435.30;2355.20;;;;;;5037778;28;20029;-85
2022/10/01 06:16:39;;;;;;;33.28;24.02;;;410.20;2355.20;;;;;;5038460;28;20032;-84
2022/10/01 06:19:05;;;;;;;23.42;20.92;;;410.50;2355.20;;;;;;5038478;28;20033;-84
2022/10/01 06:21:31;;;;;;;27.17;20.33;;;410.50;2355.20;;;;;;5055876;28;20151;-81
2022/10/01 06:23:57;;;;;;;23.60;17.15;;;410.40;2355.20;;;;;;5038030;28;20033;-83
2022/10/01 06:26:23;;;;;;;23.73;18.05;;;410.50;2355.20;;;;;;5038170;28;20477;-82
2022/10/01 06:28:50;;;;;;;20.95;14.65;;;410.00;2355.20;;;;;;5037894;28;20029;-83
2022/10/01 06:31:20;;;;;;;21.88;16.30;;;410.30;2355.20;;;;;;5038224;28;20029;-81
2022/10/01 06:33:46;;;;;;;23.73;16.58;;;410.30;2355.20;;;;;;5037496;28;20024;-83
2022/10/01 06:36:11;;;;;;;21.27;16.00;;;410.30;2355.20;;;;;;5037693;28;20035;-83
2022/10/01 06:38:37;;;;;;;18.17;15.40;;;410.40;2355.20;;;;;;5036729;28;20025;-83
2022/10/01 06:41:04;;;;;;;17.02;15.23;;;410.50;2355.20;;;;;;5037590;28;20125;-81
2022/10/01 06:43:31;;;;;;;23.42;16.15;;;435.20;2355.20;;;;;;5037319;28;20049;-82
2022/10/01 06:46:00;;;;;;;18.58;14.30;;;410.50;2355.20;;;;;;5037670;28;20033;-86
2022/10/01 06:48:27;;;;;;;23.42;15.90;;;410.50;2355.20;;;;;;5037609;28;20037;-82
2022/10/01 06:50:55;;;;;;;19.00;14.80;;;435.20;2355.20;;;;;;5037026;28;20029;-81
2022/10/01 06:53:20;;;;;;;21.45;15.13;;;435.30;2355.20;;;;;;5037749;28;20050;-82
2022/10/01 06:55:48;;;;;;;26.50;17.83;;;435.30;2355.20;;;;;;5036340;28;20028;-82
2022/10/01 06:58:16;;;;;;;27.35;19.17;;;435.40;2355.20;;;;;;5027048;28;20029;-82
2022/10/01 07:00:43;;;;;;;25.80;16.98;;;435.50;2355.20;;;;;;5036339;28;20079;-80
2022/10/01 07:03:17;;;;;;;27.98;17.30;;;410.50;2355.20;;;;;;5035847;28;20032;-82
2022/10/01 07:05:43;;;;;;;29.77;22.23;;;435.60;2355.20;;;;;;5037172;28;20466;-82
2022/10/01 07:08:09;;;;;;;31.38;22.90;;;409.60;2355.20;;;;;;5054021;28;20532;-83
2022/10/01 07:10:36;;;;;;;32.45;21.70;;;435.50;2355.20;;;;;;5035871;28;20067;-80
2022/10/01 07:13:15;;;;;;;33.30;23.88;;;435.90;2355.20;;;;;;5036841;28;20466;-82
2022/10/01 07:15:41;;;;;;;32.20;23.20;;;435.60;2355.20;;;;;;5036978;28;20488;-81
2022/10/01 07:18:10;;;;;;;33.30;22.30;;;435.60;2355.20;;;;;;5036866;28;20040;-82
2022/10/01 07:20:40;;;;;;;33.42;20.05;;;435.60;2355.20;;;;;;5054671;28;20083;-79
2022/10/01 07:23:09;;;;;;;34.10;21.38;;;435.80;2355.20;;;;;;5036902;28;20036;-78
2022/10/01 07:25:37;;;;;;;37.85;26.13;;;435.80;2355.20;;;;;;5054202;28;20025;-79
2022/10/01 07:28:04;;;;;;;34.85;22.92;;;435.80;2355.20;;;;;;5036667;28;20033;-82
2022/10/01 07:30:31;;;;;;;37.90;24.17;;;435.80;2355.20;;;;;;5036609;28;20025;-79
2022/10/01 07:32:58;;;;;;;31.95;22.45;;;435.80;2355.20;;;;;;5054631;28;20024;-82
2022/10/01 07:35:24;;;;;;;36.65;20.55;;;435.80;2355.20;;;;;;5054366;28;20017;-81
2022/10/01 07:37:50;;;;;;;29.65;20.67;;;435.80;2355.20;;;;;;5036558;28;20079;-80
2022/10/01 07:40:17;;;;;;;26.13;17.70;;;435.80;2355.20;;;;;;5036485;28;20031;-80
2022/10/01 07:42:53;;;;;;;27.38;21.00;;;435.80;2355.20;;;;;;5036965;28;20459;-80
2022/10/01 07:45:20;;;;;;;32.70;22.73;;;435.90;2355.20;;;;;;5035636;28;20494;-83
2022/10/01 07:48:00;;;;;;;36.03;21.67;;;436.00;2355.20;;;;;;5034185;28;20025;-85
2022/10/01 07:50:29;;;;;;;31.70;22.33;;;436.00;2355.20;;;;;;5035580;28;20021;-85
2022/10/01 07:52:56;;;;;;;36.92;24.65;;;436.10;2355.20;;;;;;5053455;28;20096;-81
2022/10/01 07:55:25;;;;;;;40.53;26.33;;;436.10;2355.20;;;;;;5035354;28;20097;-84
2022/10/01 07:57:53;;;;;;;49.38;38.17;;;436.10;2355.20;;;;;;5035677;28;20051;-82
2022/10/01 08:00:19;;;;;;;56.90;36.28;;;436.10;2355.20;;;;;;5053127;28;20021;-85
2022/10/01 08:02:54;;;;;;;48.90;35.78;;;436.10;1996.80;;;;;;5035288;28;20473;-83
2022/10/01 08:05:22;;;;;;;52.10;37.03;;;436.00;2355.20;;;;;;5035569;28;20100;-85
2022/10/01 08:07:49;;;;;;;48.78;34.45;;;436.00;2355.20;;;;;;5035451;28;20439;-82
2022/10/01 08:10:16;;;;;;;48.08;34.83;;;460.80;2380.80;;;;;;5034695;28;20029;-83
2022/10/01 08:12:42;;;;;;;55.33;39.95;;;460.80;2380.80;;;;;;5053362;28;20488;-83
2022/10/01 08:15:14;;;;;;;40.25;27.58;;;460.90;2380.80;;;;;;5052440;28;20100;-82
2022/10/01 08:17:40;;;;;;;27.67;19.65;;;436.10;2355.20;;;;;;5052644;28;20359;-81
2022/10/01 08:20:09;;;;;;;23.38;20.02;;;436.00;2355.20;;;;;;5060153;28;20029;-84
2022/10/01 08:22:35;;;;;;;27.00;19.23;;;460.80;2380.80;;;;;;5037518;28;20029;-82
2022/10/01 08:25:01;;;;;;;21.45;16.15;;;436.10;2201.60;;;;;;5034937;28;20021;-84
2022/10/01 08:27:27;;;;;;;24.85;15.38;;;460.80;2380.80;;;;;;5034860;28;20124;-83
2022/10/01 08:29:53;;;;;;;21.70;16.17;;;436.00;2355.20;;;;;;5035148;28;20083;-82
2022/10/01 08:32:20;;;;;;;25.60;17.08;;;436.00;2355.20;;;;;;5034871;28;20029;-84
2022/10/01 08:34:47;;;;;;;29.88;18.23;;;436.00;2355.20;;;;;;5052726;28;20288;-83
2022/10/01 08:37:13;;;;;;;25.30;17.02;;;435.90;2355.20;;;;;;5034899;28;20075;-84
2022/10/01 08:39:39;;;;;;;23.20;16.92;;;436.10;2355.20;;;;;;5034927;28;20025;-82
2022/10/01 08:42:26;;;;;;;26.65;17.33;;;436.10;2355.20;;;;;;5034983;28;20028;-80
2022/10/01 08:44:52;;;;;;;29.05;18.98;;;436.10;2355.20;;;;;;5030337;28;20051;-80
2022/10/01 08:47:29;;;;;;;30.77;18.55;;;436.10;2355.20;;;;;;5035207;28;20374;-81
2022/10/01 08:50:10;;;;;;;25.77;18.33;;;436.10;2355.20;;;;;;5035730;28;20025;-82
2022/10/01 08:52:43;;;;;;;26.17;19.80;;;436.10;2355.20;;;;;;5035216;28;20379;-83
2022/10/01 08:55:15;;;;;;;29.33;20.67;;;460.80;2380.80;;;;;;5052195;28;20510;-80
2022/10/01 08:57:50;;;;;;;24.73;18.90;;;460.90;2380.80;;;;;;5035826;28;20497;-80
2022/10/01 09:00:18;;;;;;;27.10;20.58;;;460.90;2380.80;;;;;;5035304;28;20025;-84
2022/10/01 09:02:45;;;;;;;45.00;28.60;;;460.90;2380.80;;;;;;5035635;28;20029;-84
2022/10/01 09:05:20;;;;;;;57.83;30.88;;;460.90;2380.80;;;;;;5052869;28;20029;-81
2022/10/01 09:08:03;;;;;;;56.08;40.40;;;460.90;2380.80;;;;;;5052965;28;20033;-83
2022/10/01 09:10:59;;;;;;;46.88;35.97;;;461.00;2380.80;;;;;;5068813;28;20040;-79
2022/10/01 09:13:34;;;;;;;42.85;33.10;;;461.00;2380.80;;;;;;5053265;28;20033;-84
2022/10/01 09:16:12;;;;;;;50.35;32.95;;;461.00;2380.80;;;;;;5068702;28;20098;-81
2022/10/01 09:18:43;;;;;;;48.35;32.97;;;461.00;2380.80;;;;;;5068852;28;20517;-81
2022/10/01 09:21:42;;;;;;;55.22;36.83;;;460.90;2380.80;;;;;;5068406;28;20036;-81
2022/10/01 09:24:21;;;;;;;88.15;63.00;;;461.00;2022.40;;;;;;5052199;28;20017;-82
2022/10/01 09:26:50;;;;;;;68.63;46.40;;;461.00;2380.80;;;;;;5060551;28;20052;-80
2022/10/01 09:29:25;;;;;;;100.68;59.83;;;461.10;2380.80;;;;;;5042653;28;20048;-81
2022/10/01 09:31:52;;;;;;;75.28;46.08;;;461.10;2380.80;;;;;;5036349;28;20474;-83
2022/10/01 09:34:34;;;;;;;57.47;38.13;;;461.20;2380.80;;;;;;5036857;28;20138;-82
2022/10/01 09:37:20;;;;;;;41.58;31.25;;;461.30;2380.80;;;;;;5056457;28;20463;-83
2022/10/01 09:39:46;;;;;;;94.38;81.13;;;461.30;2380.80;;;;;;5038760;28;20036;-83
2022/10/01 09:42:12;;;;;;;70.60;53.22;;;461.60;2380.80;;;;;;5038161;28;20029;-81
2022/10/01 09:44:38;;;;;;;59.05;45.70;;;461.50;2380.80;;;;;;5034937;28;20415;-81
2022/10/01 09:47:19;;;;;;;50.03;40.53;;;461.50;2380.80;;;;;;5035311;28;20466;-80
2022/10/01 09:49:47;;;;;;;82.90;54.85;;;486.50;2380.80;;;;;;5038334;28;20086;-82
2022/10/01 09:52:18;;;;;;;109.95;70.07;;;486.50;2380.80;;;;;;5033305;28;20037;-80
2022/10/01 09:55:07;;;;;;;92.35;67.40;;;486.40;2380.80;;;;;;5038003;28;20086;-78
2022/10/01 09:57:49;;;;;;;70.03;52.67;;;486.60;2380.80;;;;;;5023368;28;20041;-80
2022/10/01 10:00:24;;;;;;;47.08;40.00;;;486.80;2380.80;;;;;;5033290;28;20022;-80
2022/10/01 10:02:52;;;;;;;40.35;30.25;;;486.90;2380.80;;;;;;5033565;28;20075;-81
2022/10/01 10:05:21;;;;;;;33.28;24.88;;;486.80;2380.80;;;;;;5034342;28;20030;-80
2022/10/01 10:08:03;;;;;;;29.40;20.10;;;487.10;2380.80;;;;;;5034496;28;20087;-80
2022/10/01 10:10:34;;;;;;;59.80;44.70;;;487.10;2380.80;;;;;;5035018;28;20076;-77
2022/10/01 10:13:04;;;;;;;78.60;57.15;;;487.30;2380.80;;;;;;5034800;28;20021;-78
2022/10/01 10:15:31;;;;;;;73.43;51.67;;;487.20;2380.80;;;;;;5034427;28;20099;-79
2022/10/01 10:18:11;;;;;;;56.47;42.55;;;487.30;2380.80;;;;;;5034526;28;20040;-79
2022/10/01 10:20:44;;;;;;;61.90;46.55;;;487.30;2380.80;;;;;;5034563;28;20068;-81
2022/10/01 10:23:15;;;;;;;38.65;32.92;;;487.30;2380.80;;;;;;5034210;28;20059;-80
2022/10/01 10:25:40;;;;;;;47.13;37.42;;;487.30;2380.80;;;;;;5034480;28;20079;-81
2022/10/01 10:28:22;;;;;;;55.38;38.05;;;487.20;2380.80;;;;;;5034211;28;20026;-81
2022/10/01 10:30:53;;;;;;;45.78;37.90;;;487.20;2380.80;;;;;;5035565;28;20382;-80
2022/10/01 10:33:20;;;;;;;57.05;42.72;;;487.20;2380.80;;;;;;5034334;28;20035;-82
2022/10/01 10:35:56;;;;;;;47.10;40.38;;;487.10;2380.80;;;;;;5035558;28;20025;-81
2022/10/01 10:38:28;;;;;;;54.67;43.47;;;487.10;2380.80;;;;;;5034295;28;20116;-78
2022/10/01 10:40:54;;;;;;;53.85;44.05;;;487.10;2380.80;;;;;;5034220;28;20029;-80
2022/10/01 10:43:27;;;;;;;52.35;42.40;;;487.10;2380.80;;;;;;5033522;28;20133;-80
2022/10/01 10:45:55;;;;;;;54.80;46.47;;;487.10;2380.80;;;;;;5035350;28;20032;-80
2022/10/01 10:48:24;;;;;;;52.40;44.30;;;487.20;2380.80;;;;;;5034128;28;20029;-80
2022/10/01 10:50:59;;;;;;;50.20;44.72;;;487.10;2380.80;;;;;;5035079;28;20064;-81
2022/10/01 10:53:28;;;;;;;31.63;26.85;;;487.20;2380.80;;;;;;5033948;28;20121;-79
2022/10/01 10:56:04;;;;;;;31.88;25.38;;;487.10;2380.80;;;;;;5034992;28;20075;-78
2022/10/01 10:58:33;;;;;;;38.38;30.25;;;487.10;2380.80;;;;;;5033625;28;20163;-79
2022/10/01 11:01:07;;;;;;;45.55;38.95;;;487.10;2380.80;;;;;;5033364;28;20112;-78
2022/10/01 11:03:37;;;;;;;41.28;33.88;;;487.20;2380.80;;;;;;5034989;28;20049;-79
2022/10/01 11:06:11;;;;;;;41.83;30.02;;;487.20;2380.80;;;;;;5033270;28;20120;-80
2022/10/01 11:08:38;;;;;;;45.10;31.35;;;487.20;2380.80;;;;;;5034881;28;20033;-78
2022/10/01 11:11:17;;;;;;;47.15;31.20;;;487.20;2380.80;;;;;;5033416;28;20036;-79
2022/10/01 11:14:04;;;;;;;45.92;30.55;;;487.20;2380.80;;;;;;5033637;28;20022;-81
2022/10/01 11:16:53;;;;;;;31.58;24.27;;;487.30;2380.80;;;;;;5033435;28;20372;-79
2022/10/01 11:19:37;;;;;;;29.73;25.95;;;512.10;2380.80;;;;;;5033906;28;20087;-78
2022/10/01 11:22:30;;;;;;;29.15;23.23;;;512.20;2380.80;;;;;;5036074;28;20080;-79
2022/10/01 11:25:17;;;;;;;24.45;18.85;;;512.10;2380.80;;;;;;5013868;28;20045;-82
2022/10/01 11:28:09;;;;;;;23.65;18.67;;;487.30;2380.80;;;;;;5012021;28;20128;-80
2022/10/01 11:31:07;;;;;;;20.10;16.20;;;512.30;2380.80;;;;;;5014933;28;20041;-79
2022/10/01 11:34:19;;;;;;;19.25;17.17;;;512.20;2380.80;;;;;;5009688;28;20080;-81
2022/10/01 11:36:50;;;;;;;18.48;13.07;;;;;;;;;;5007985;28;20376;-82
2022/10/01 11:39:19;;;;;;;20.17;14.52;;;512.60;2380.80;;;;;;5014824;28;20033;-82
2022/10/01 11:41:45;;;;;;;18.38;13.50;;;;;;;;;;5014881;28;20026;-81
2022/10/01 11:44:18;;;;;;;16.90;14.63;;;;;;;;;;5013262;28;20046;-81
2022/10/01 11:47:08;;;;;;;16.15;14.35;;;512.80;2380.80;;;;;;5013352;28;20033;-80
2022/10/01 11:49:54;;;;;;;31.67;13.98;;;512.70;2380.80;;;;;;5013573;28;20052;-80
2022/10/01 11:52:32;;;;;;;16.88;12.70;;;537.60;2406.40;;;;;;5013503;28;20041;-78
2022/10/01 11:58:50;;;;;;;13.75;11.02;;;538.00;2406.40;;;;;;5014275;28;20084;-79
2022/10/01 12:01:31;;;;;;;15.15;11.45;;;537.90;2406.40;;;;;;5013152;28;20026;-81
2022/10/01 12:04:03;;;;;;;9.73;8.38;;;537.80;2406.40;;;;;;5013304;28;20049;-82
2022/10/01 12:06:32;;;;;;;13.75;9.27;;;537.80;2406.40;;;;;;5045966;28;20033;-80
2022/10/01 12:09:42;;;;;;;16.23;10.00;;;537.70;2406.40;;;;;;5012945;28;20034;-81
2022/10/01 12:12:14;;;;;;;12.85;10.27;;;537.70;2406.40;;;;;;5013057;28;20049;-81
2022/10/01 12:14:43;;;;;;;15.85;12.73;;;537.70;2406.40;;;;;;5012721;28;20022;-80
2022/10/01 12:17:18;;;;;;;17.30;15.15;;;537.70;2406.40;;;;;;5023676;28;20087;-81
2022/10/01 12:19:49;;;;;;;19.58;15.77;;;537.60;2406.40;;;;;;5032238;28;20033;-80
2022/10/01 12:22:26;;;;;;;16.10;13.25;;;537.60;2406.40;;;;;;5015091;28;20033;-81
2022/10/01 12:24:53;;;;;;;16.50;13.60;;;537.60;2406.40;;;;;;5027834;28;20076;-81
2022/10/01 12:27:40;;;;;;;20.88;16.85;;;537.60;2406.40;;;;;;5012172;28;20498;-80